Time;durP1;ratioP1;P1;durP2;ratioP2;P2;SDS_P1;SDS_P2;PMS_P1;PMS_P2;Temp;Humidity;BMP_temperature;BMP_pressure;BME280_temperature;BME280_humidity;BME280_pressure;Samples;Min_cycle;Max_cycle;Signal;HPM_P1;HPM_P2
2022/01/12 00:02:10;;;;;;;19.70;11.15;;;;;;;3.27;57.94;102515.97;5030726;28;20481;-61
2022/01/12 00:04:36;;;;;;;22.70;12.77;;;;;;;3.30;57.71;102516.00;5030575;28;20111;-59
2022/01/12 00:07:04;;;;;;;20.92;13.45;;;;;;;3.26;57.83;102516.84;5030891;28;20099;-57
2022/01/12 00:09:31;;;;;;;23.85;13.20;;;;;;;3.19;57.98;102508.19;5029827;28;20104;-57
2022/01/12 00:11:59;;;;;;;28.13;14.63;;;;;;;3.18;58.07;102518.56;5029353;28;20049;-57
2022/01/12 00:14:28;;;;;;;29.48;15.25;;;;;;;3.23;57.78;102503.88;5030271;28;20082;-56
2022/01/12 00:16:59;;;;;;;23.80;13.75;;;;;;;3.18;57.71;102510.78;5030515;28;20520;-57
2022/01/12 00:19:27;;;;;;;27.23;14.35;;;;;;;3.14;57.94;102522.00;5030336;28;20049;-64
2022/01/12 00:21:55;;;;;;;26.92;14.30;;;;;;;3.13;57.86;102507.31;5030453;28;20049;-56
2022/01/12 00:24:38;;;;;;;25.15;13.40;;;;;;;3.13;58.21;102502.13;5029982;28;20051;-57
2022/01/12 00:35:25;;;;;;;25.98;13.80;;;;;;;3.05;58.47;102538.41;5029562;28;20057;-58
2022/01/12 00:37:51;;;;;;;25.58;14.85;;;;;;;2.99;58.49;102538.38;5029888;28;20045;-56
2022/01/12 00:40:18;;;;;;;25.25;12.88;;;;;;;3.00;58.46;102515.03;5029966;28;20052;-57
2022/01/12 00:42:45;;;;;;;25.30;14.02;;;;;;;2.86;58.82;102509.78;5017189;28;20485;-57
2022/01/12 00:45:12;;;;;;;26.13;13.52;;;;;;;2.86;58.64;102512.38;5030133;28;20502;-58
2022/01/12 00:47:38;;;;;;;23.13;14.25;;;;;;;2.84;58.50;102505.47;5029515;28;20678;-57
2022/01/12 00:50:06;;;;;;;23.73;13.65;;;;;;;2.81;58.48;102515.84;5030157;28;20050;-58
2022/01/12 00:52:32;;;;;;;21.77;13.95;;;;;;;2.75;58.29;102519.25;5030188;28;20045;-57
2022/01/12 00:54:59;;;;;;;26.88;13.63;;;;;;;2.69;58.37;102514.91;5029964;28;20415;-57
2022/01/12 00:57:25;;;;;;;23.52;13.25;;;;;;;2.70;58.54;102526.13;5029182;28;20049;-59
2022/01/12 00:59:52;;;;;;;23.98;12.88;;;;;;;2.66;58.32;102540.81;5029765;28;20049;-62
2022/01/12 01:02:19;;;;;;;21.67;12.00;;;;;;;2.66;58.33;102545.13;5029554;28;20642;-57
2022/01/12 01:04:45;;;;;;;22.13;12.52;;;;;;;2.63;58.41;102529.53;5029666;28;20056;-57
2022/01/12 01:07:12;;;;;;;18.90;11.90;;;;;;;2.60;58.44;102538.19;5029597;28;20076;-63
2022/01/12 01:09:44;;;;;;;20.45;11.80;;;;;;;2.55;58.22;102533.00;5028940;28;20410;-57
2022/01/12 01:12:11;;;;;;;23.85;12.13;;;;;;;2.56;58.06;102526.06;5029317;28;20045;-57
2022/01/12 01:15:00;;;;;;;22.95;13.15;;;;;;;2.51;58.06;102536.41;5029449;28;20072;-57
2022/01/12 01:25:50;;;;;;;;;;;;;;;2.47;58.39;102531.19;5020355;28;20042;-61
2022/01/12 01:28:17;;;;;;;;;;;;;;;2.49;58.47;102543.31;5032701;28;19921;-56
2022/01/12 01:30:45;;;;;;;17.48;11.10;;;;;;;2.49;58.33;102548.50;5032558;28;19925;-57
2022/01/12 01:33:15;;;;;;;18.70;10.95;;;;;;;2.51;58.26;102543.31;5032276;28;20490;-57
2022/01/12 01:35:52;;;;;;;20.35;11.68;;;;;;;2.48;58.52;102544.16;5032320;28;20054;-61
2022/01/12 01:38:19;;;;;;;19.02;11.18;;;;;;;2.53;58.43;102539.88;5031908;28;20133;-62
2022/01/12 01:40:46;;;;;;;20.00;12.00;;;;;;;2.51;58.54;102541.56;5032337;28;20042;-57
2022/01/12 01:54:32;;;;;;;18.60;10.82;;;;;;;2.43;58.97;102544.13;5031989;28;20046;-59
2022/01/12 01:56:59;;;;;;;18.90;11.32;;;;;;;2.45;59.24;102537.22;5031938;28;20084;-60
2022/01/12 01:59:25;;;;;;;16.40;10.75;;;;;;;2.43;59.25;102535.50;5031340;28;20046;-59
2022/01/12 02:01:52;;;;;;;17.42;10.88;;;;;;;2.36;59.41;102546.66;5032119;28;20045;-59
2022/01/12 02:04:19;;;;;;;15.13;10.55;;;;;;;2.30;59.31;102537.16;5031494;28;20048;-59
2022/01/12 02:06:45;;;;;;;16.10;10.80;;;;;;;2.25;59.49;102541.44;5032231;28;20057;-59
2022/01/12 02:09:12;;;;;;;17.27;11.43;;;;;;;2.29;59.26;102545.75;5031275;28;20100;-63
2022/01/12 02:11:39;;;;;;;19.08;10.88;;;;;;;2.29;59.32;102551.78;5031710;28;20504;-59
2022/01/12 02:14:05;;;;;;;17.30;10.90;;;;;;;2.29;59.32;102546.63;5031731;28;20091;-64
2022/01/12 02:16:48;;;;;;;16.08;11.00;;;;;;;2.28;59.33;102549.22;5031582;28;20524;-60
2022/01/12 02:19:30;;;;;;;18.55;10.48;;;;;;;2.28;59.48;102551.78;5031493;28;20068;-59
2022/01/12 02:36:17;;;;;;;15.63;10.43;;;;;;;2.28;59.43;102567.34;5030889;28;20045;-59
2022/01/12 02:41:30;;;;;;;17.85;11.35;;;;;;;2.14;59.52;102564.63;5023017;28;20091;-66
2022/01/12 02:54:43;;;;;;;16.67;10.80;;;;;;;2.11;58.93;102569.81;5029123;28;20042;-60
2022/01/12 02:57:10;;;;;;;16.02;10.57;;;;;;;2.10;59.10;102568.06;5030700;28;20042;-66
2022/01/12 02:59:43;;;;;;;17.67;10.85;;;;;;;2.04;59.21;102570.59;5030750;28;20068;-59
2022/01/12 03:02:26;;;;;;;21.48;11.52;;;;;;;2.02;59.27;102577.47;5031315;28;20047;-59
2022/01/12 03:07:35;;;;;;;18.98;11.07;;;;;;;2.03;59.30;102568.84;5031280;28;20049;-60
2022/01/12 03:10:07;;;;;;;14.57;10.00;;;;;;;2.06;59.19;102571.50;5030696;28;20061;-59
2022/01/12 03:12:39;;;;;;;17.88;10.52;;;;;;;2.09;58.98;102559.41;5031338;28;20046;-59
2022/01/12 03:15:06;;;;;;;16.15;10.25;;;;;;;2.05;59.10;102568.00;5031203;28;20517;-61
2022/01/12 03:17:34;;;;;;;20.00;11.77;;;;;;;2.04;59.31;102574.03;5031215;28;20084;-59
2022/01/12 03:20:02;;;;;;;17.17;10.27;;;;;;;2.06;59.26;102582.69;5031336;28;20049;-60
2022/01/12 03:22:29;;;;;;;16.27;9.75;;;;;;;2.04;59.12;102580.97;5031346;28;20049;-61
2022/01/12 03:24:55;;;;;;;17.85;9.68;;;;;;;1.99;59.31;102573.13;5030889;28;20457;-59
2022/01/12 03:27:25;;;;;;;16.17;10.88;;;;;;;1.96;59.37;102580.91;5031053;28;20636;-60
2022/01/12 03:29:55;;;;;;;17.67;10.65;;;;;;;1.94;59.13;102592.94;5031270;28;20390;-59
2022/01/12 03:32:35;;;;;;;19.55;9.95;;;;;;;1.95;59.17;102602.44;5017855;28;20120;-58
2022/01/12 03:35:10;;;;;;;14.23;9.73;;;;;;;1.92;59.15;102611.06;5031256;28;20077;-58
2022/01/12 03:40:07;;;;;;;18.50;10.10;;;;;;;1.83;59.17;102608.38;5031056;28;20489;-59
2022/01/12 03:42:33;;;;;;;15.63;9.57;;;;;;;1.87;58.96;102624.81;5030348;28;20045;-60
2022/01/12 03:45:00;;;;;;;17.13;9.55;;;;;;;1.91;58.91;102626.59;5031220;28;20057;-57
2022/01/12 03:47:27;;;;;;;15.57;9.45;;;;;;;1.93;58.74;102612.81;5032193;28;20049;-60
2022/01/12 03:49:54;;;;;;;18.15;10.25;;;;;;;1.84;58.96;102606.66;5034553;28;20057;-60
2022/01/12 03:52:20;;;;;;;17.88;10.27;;;;;;;1.85;59.17;102624.78;5034311;28;20073;-56
2022/01/12 03:54:47;;;;;;;18.67;10.40;;;;;;;1.89;59.20;102625.69;5034302;28;20496;-59
2022/01/12 03:57:13;;;;;;;15.65;9.48;;;;;;;1.93;59.26;102633.50;5034281;28;20481;-56
2022/01/12 03:59:40;;;;;;;17.63;9.98;;;;;;;1.92;59.31;102634.34;5034560;28;20099;-62
2022/01/12 04:02:07;;;;;;;14.82;9.57;;;;;;;1.89;59.19;102625.69;5032845;28;20386;-56
2022/01/12 04:04:42;;;;;;;19.88;11.52;;;;;;;1.86;59.23;102636.88;5029822;28;20482;-62
2022/01/12 04:09:54;;;;;;;19.63;9.98;;;;;;;1.81;59.70;102643.72;5026472;28;20619;-57
2022/01/12 04:12:20;;;;;;;19.65;9.77;;;;;;;1.81;59.55;102656.66;5030611;28;20050;-57
2022/01/12 04:14:47;;;;;;;15.98;9.20;;;;;;;1.85;59.52;102660.16;5030981;28;20056;-56
2022/01/12 04:17:14;;;;;;;17.17;10.40;;;;;;;1.82;59.49;102652.38;5030045;28;20508;-56
2022/01/12 04:19:40;;;;;;;18.15;9.60;;;;;;;1.79;59.42;102648.00;5030576;28;20056;-63
2022/01/12 04:23:16;;;;;;;19.98;10.65;;;;;;;1.77;59.78;102657.50;5030348;28;20049;-57
2022/01/12 04:24:55;;;;;;;18.17;9.63;;;;;;;1.72;59.81;102656.59;5030554;28;20045;-56
2022/01/12 04:27:22;;;;;;;24.80;11.50;;;;;;;1.68;59.94;102660.84;5030232;28;20103;-57
2022/01/12 04:29:49;;;;;;;20.25;10.50;;;;;;;1.66;60.09;102657.38;5030992;28;20119;-57
2022/01/12 04:32:15;;;;;;;32.35;11.10;;;;;;;1.66;59.71;102667.72;5030152;28;20045;-56
2022/01/12 04:34:42;;;;;;;35.95;11.68;;;;;;;1.60;59.63;102665.94;5030809;28;20898;-58
2022/01/12 04:37:08;;;;;;;24.85;10.23;;;;;;;1.59;59.68;102668.50;5030413;28;20502;-57
2022/01/12 04:39:35;;;;;;;28.52;10.30;;;;;;;1.59;59.61;102664.19;5030165;28;20052;-63
2022/01/12 04:42:02;;;;;;;29.63;9.55;;;;;;;1.57;59.61;102668.47;5030153;28;20045;-58
2022/01/12 04:44:30;;;;;;;31.77;11.85;;;;;;;1.61;59.46;102671.97;5030157;28;20780;-56
2022/01/12 04:47:06;;;;;;;25.02;10.77;;;;;;;1.63;59.46;102671.13;5030086;28;20139;-57
2022/01/12 04:52:13;;;;;;;23.75;12.45;;;;;;;1.67;59.44;102666.00;5030113;28;20049;-58
2022/01/12 04:54:40;;;;;;;28.98;13.25;;;;;;;1.66;59.80;102677.22;5030058;28;20041;-59
2022/01/12 04:57:06;;;;;;;31.55;13.82;;;;;;;1.68;59.61;102676.38;5029721;28;20050;-57
2022/01/12 04:59:36;;;;;;;26.48;12.60;;;;;;;1.69;59.74;102672.94;5029329;28;20119;-62
2022/01/12 05:06:20;;;;;;;18.10;10.32;;;;;;;1.71;59.65;102672.97;5029692;28;20563;-56
2022/01/12 05:07:45;;;;;;;20.77;10.02;;;;;;;1.60;60.07;102678.88;5029612;28;20057;-57
2022/01/12 05:13:08;;;;;;;22.92;10.60;;;;;;;1.65;59.94;102691.88;5009997;28;20042;-57
2022/01/12 05:15:36;;;;;;;21.55;10.52;;;;;;;1.62;60.19;102695.28;5030137;28;20410;-57
2022/01/12 05:18:03;;;;;;;17.77;10.50;;;;;;;1.57;60.17;102690.91;5029545;28;20509;-61
2022/01/12 05:20:30;;;;;;;15.80;9.55;;;;;;;1.57;60.14;102683.13;5029475;28;20482;-59
2022/01/12 05:22:57;;;;;;;19.70;9.30;;;;;;;1.55;60.10;102690.88;5029657;28;20418;-56
2022/01/12 05:25:23;;;;;;;14.77;9.27;;;;;;;1.53;60.07;102691.72;5029104;28;20045;-57
2022/01/12 05:27:50;;;;;;;12.65;9.00;;;;;;;1.50;59.98;102702.91;5029486;28;20045;-62
2022/01/12 05:30:17;;;;;;;19.00;10.10;;;;;;;1.40;60.17;102720.00;5029188;28;20056;-57
2022/01/12 05:32:45;;;;;;;23.33;10.15;;;;;;;1.41;59.89;102716.59;5029230;28;20045;-64
2022/01/12 05:35:14;;;;;;;17.83;9.05;;;;;;;1.40;59.98;102708.81;5029232;28;20494;-56
2022/01/12 05:37:41;;;;;;;19.20;9.40;;;;;;;1.39;60.04;102704.47;5029158;28;20063;-57
2022/01/12 05:40:08;;;;;;;20.25;10.35;;;;;;;1.41;59.99;102706.22;5029400;28;20053;-57
2022/01/12 05:42:36;;;;;;;17.27;9.90;;;;;;;1.40;60.11;102712.25;5026487;28;20057;-58
2022/01/12 05:45:05;;;;;;;20.45;9.65;;;;;;;1.39;60.21;102718.25;5029221;28;20130;-63
2022/01/12 05:50:11;;;;;;;18.60;9.68;;;;;;;1.37;60.15;102725.16;5029221;28;20049;-58
2022/01/12 05:52:37;;;;;;;15.27;9.50;;;;;;;1.37;60.16;102725.16;5028883;28;20045;-59
2022/01/12 05:55:05;;;;;;;17.20;10.27;;;;;;;1.38;60.23;102728.59;5028856;28;20053;-65
2022/01/12 05:57:33;;;;;;;19.50;10.45;;;;;;;1.42;60.25;102736.44;5028830;28;20055;-59
2022/01/12 06:00:00;;;;;;;17.75;10.25;;;;;;;1.40;60.41;102730.34;5028871;28;20556;-59
2022/01/12 06:02:27;;;;;;;18.58;9.70;;;;;;;1.35;60.17;102734.59;5029034;28;20056;-58
2022/01/12 06:04:54;;;;;;;17.15;9.35;;;;;;;1.30;60.60;102731.09;5029360;28;20103;-58
2022/01/12 06:07:21;;;;;;;17.05;9.52;;;;;;;1.34;60.26;102743.19;5028261;28;20060;-60
2022/01/12 06:09:56;;;;;;;18.33;9.93;;;;;;;1.34;60.19;102744.94;5027799;28;20057;-60
2022/01/12 06:12:25;;;;;;;26.33;11.55;;;;;;;1.36;59.99;102748.38;5028672;28;20053;-63
2022/01/12 06:14:52;;;;;;;19.92;10.32;;;;;;;1.39;59.97;102753.63;5028503;28;20053;-60
2022/01/12 06:17:19;;;;;;;21.45;10.30;;;;;;;1.38;60.04;102763.09;5028591;28;20717;-60
2022/01/12 06:19:45;;;;;;;20.00;10.68;;;;;;;1.38;59.94;102763.09;5028177;28;20593;-61
2022/01/12 06:22:13;;;;;;;22.80;10.65;;;;;;;1.38;60.10;102763.09;5028255;28;20045;-59
2022/01/12 06:24:39;;;;;;;19.92;9.98;;;;;;;1.36;60.14;102766.50;5028548;28;20505;-58
2022/01/12 06:27:09;;;;;;;21.13;10.68;;;;;;;1.29;59.96;102776.75;5028393;28;20049;-58
2022/01/12 06:29:42;;;;;;;22.92;10.27;;;;;;;1.25;59.99;102779.28;5028575;28;20042;-60
2022/01/12 06:32:10;;;;;;;18.65;9.75;;;;;;;1.21;60.11;102783.53;5028459;28;20045;-60
2022/01/12 06:34:37;;;;;;;23.35;10.73;;;;;;;1.18;60.05;102782.59;5028802;28;20046;-64
2022/01/12 06:37:04;;;;;;;24.23;11.77;;;;;;;1.14;59.74;102789.44;5026698;28;20049;-59
2022/01/12 06:39:30;;;;;;;20.75;11.82;;;;;;;1.14;59.82;102797.22;5030913;28;20037;-59
2022/01/12 06:41:57;;;;;;;26.40;12.02;;;;;;;1.13;59.93;102796.34;5028385;28;20050;-59
2022/01/12 06:44:25;;;;;;;25.83;12.30;;;;;;;1.13;59.81;102790.28;5016364;28;20481;-59
2022/01/12 06:46:53;;;;;;;24.25;11.52;;;;;;;1.13;59.81;102791.19;5021892;28;20052;-60
2022/01/12 06:49:20;;;;;;;16.77;10.93;;;;;;;1.12;59.99;102801.50;5028304;28;20045;-60
2022/01/12 06:51:47;;;;;;;21.50;11.43;;;;;;;1.35;59.61;102807.03;5025058;28;20132;-59
2022/01/12 06:54:16;;;;;;;29.13;12.77;;;;;;;1.24;59.62;102803.41;5028147;28;20042;-59
2022/01/12 06:56:43;;;;;;;26.52;13.80;;;;;;;1.19;59.65;102811.06;5028653;28;20041;-59
2022/01/12 06:59:09;;;;;;;28.00;15.32;;;;;;;1.20;59.69;102806.78;5028325;28;20050;-59
2022/01/12 07:01:36;;;;;;;28.27;15.90;;;;;;;1.23;59.62;102812.88;5028318;28;20042;-59
2022/01/12 07:04:03;;;;;;;24.30;13.77;;;;;;;1.35;59.16;102801.00;5028034;28;20049;-60
2022/01/12 07:06:30;;;;;;;22.13;11.43;;;;;;;1.18;59.86;102808.47;5028250;28;20042;-67
2022/01/12 07:08:57;;;;;;;19.80;11.35;;;;;;;1.13;59.97;102817.03;5027301;28;20498;-58
2022/01/12 07:11:23;;;;;;;19.52;12.43;;;;;;;1.12;60.00;102832.53;5027796;28;20119;-58
2022/01/12 07:13:50;;;;;;;32.78;16.90;;;;;;;1.11;59.92;102825.59;5024630;28;20467;-58
2022/01/12 07:16:17;;;;;;;25.27;15.15;;;;;;;1.11;59.82;102833.38;5024139;28;20409;-57
2022/01/12 07:18:43;;;;;;;17.58;10.82;;;;;;;1.16;59.80;102828.28;5021284;28;20045;-58
2022/01/12 07:21:10;;;;;;;25.25;11.25;;;;;;;1.20;59.63;102827.47;5015617;28;20041;-62
2022/01/12 07:23:37;;;;;;;21.48;10.50;;;;;;;1.26;59.62;102833.63;5014926;28;20057;-63
2022/01/12 07:26:03;;;;;;;21.48;10.35;;;;;;;1.42;59.27;102839.91;5018805;28;20477;-57
2022/01/12 07:28:30;;;;;;;20.40;9.68;;;;;;;1.60;59.08;102841.00;5016218;28;20050;-57
2022/01/12 07:30:57;;;;;;;14.75;10.60;;;;;;;1.75;58.73;102838.66;5031206;28;20525;-58
2022/01/12 07:33:25;;;;;;;17.42;10.00;;;;;;;1.86;58.26;102843.97;5025579;28;20041;-57
2022/01/12 07:35:52;;;;;;;19.85;10.93;;;;;;;1.99;58.25;102854.50;5030647;28;20119;-57
2022/01/12 07:38:19;;;;;;;18.55;10.32;;;;;;;2.07;57.91;102853.75;5030838;28;20088;-65
2022/01/12 07:40:46;;;;;;;18.23;10.38;;;;;;;2.10;58.01;102864.16;5029671;28;20053;-57
2022/01/12 07:43:12;;;;;;;16.45;10.07;;;;;;;2.14;57.92;102859.03;5030667;28;20045;-62
2022/01/12 07:45:39;;;;;;;15.85;10.25;;;;;;;2.14;58.01;102862.47;5030359;28;20415;-58
2022/01/12 07:48:06;;;;;;;18.02;11.38;;;;;;;2.18;58.02;102864.25;5030366;28;20516;-58
2022/01/12 07:50:32;;;;;;;17.63;9.85;;;;;;;2.20;58.07;102867.72;5026754;28;20048;-69
2022/01/12 07:52:59;;;;;;;17.75;10.10;;;;;;;2.26;58.11;102866.94;5025776;28;20091;-66
2022/01/12 07:55:26;;;;;;;20.95;11.05;;;;;;;2.29;57.94;102874.75;5024365;28;20049;-64
2022/01/12 07:57:53;;;;;;;16.92;10.60;;;;;;;2.32;57.93;102877.38;5022253;28;20131;-59
2022/01/12 08:00:20;;;;;;;21.67;12.23;;;;;;;2.32;58.04;102879.09;5028732;28;20053;-63
2022/01/12 08:02:49;;;;;;;21.20;11.13;;;;;;;2.36;58.14;102879.16;5030775;28;20049;-58
2022/01/12 08:05:18;;;;;;;18.40;10.65;;;;;;;2.40;58.10;102880.06;5030497;28;20061;-64
2022/01/12 08:07:45;;;;;;;19.58;10.73;;;;;;;2.42;58.06;102889.59;5029891;28;20054;-61
2022/01/12 08:10:12;;;;;;;20.80;11.30;;;;;;;2.50;58.07;102900.06;5030555;28;20501;-66
2022/01/12 08:12:39;;;;;;;20.55;10.68;;;;;;;2.55;58.12;102902.69;5030689;28;20045;-58
2022/01/12 08:15:08;;;;;;;19.10;10.55;;;;;;;2.67;57.88;102907.19;5030033;28;20041;-58
2022/01/12 08:17:35;;;;;;;17.95;10.90;;;;;;;2.80;57.90;102905.59;5029809;28;20050;-58
2022/01/12 08:20:08;;;;;;;24.08;11.35;;;;;;;2.94;57.69;102899.66;5030391;28;20065;-59
2022/01/12 08:22:35;;;;;;;20.25;11.65;;;;;;;3.08;57.50;102902.41;5030334;28;20468;-58
2022/01/12 08:25:03;;;;;;;22.73;12.35;;;;;;;3.38;57.10;102905.28;5029730;28;20056;-57
2022/01/12 08:27:29;;;;;;;26.77;13.18;;;;;;;3.69;56.76;102892.53;5029960;28;20053;-58
2022/01/12 08:30:01;;;;;;;23.58;11.93;;;;;;;4.05;55.98;102902.28;5030133;28;20514;-58
2022/01/12 08:32:28;;;;;;;21.15;11.75;;;;;;;4.49;54.99;102897.28;5019436;28;20045;-65
2022/01/12 08:34:56;;;;;;;20.17;12.13;;;;;;;4.83;54.22;102894.78;5029856;28;20049;-59
2022/01/12 08:37:24;;;;;;;22.95;13.15;;;;;;;5.14;53.87;102887.91;5029710;28;20046;-61
2022/01/12 08:39:52;;;;;;;17.55;12.50;;;;;;;5.45;53.53;102894.84;5029433;28;20041;-64
2022/01/12 08:42:19;;;;;;;21.17;11.27;;;;;;;5.67;53.20;102899.16;5029969;28;20045;-59
2022/01/12 08:44:46;;;;;;;19.85;11.40;;;;;;;5.88;53.03;102905.22;5011801;28;20046;-67
2022/01/12 08:47:13;;;;;;;17.48;11.40;;;;;;;6.13;52.60;102897.34;5017226;28;20114;-59
2022/01/12 08:49:40;;;;;;;18.85;11.40;;;;;;;6.29;52.77;102896.44;5020315;28;20497;-64
2022/01/12 08:52:08;;;;;;;20.58;11.95;;;;;;;6.53;52.38;102905.03;5023132;28;20041;-64
2022/01/12 08:54:35;;;;;;;17.77;11.57;;;;;;;6.73;52.01;102904.03;5028568;28;20407;-63
2022/01/12 08:57:01;;;;;;;19.17;10.43;;;;;;;6.88;52.05;102911.78;5018418;28;20042;-65
2022/01/12 08:59:28;;;;;;;27.55;12.10;;;;;;;7.09;51.69;102908.19;5026326;28;20049;-60
2022/01/12 09:01:55;;;;;;;21.02;11.52;;;;;;;7.30;51.11;102903.66;5029662;28;20509;-67
2022/01/12 09:04:22;;;;;;;17.13;10.63;;;;;;;7.47;50.80;102907.00;5028896;28;20548;-59
2022/01/12 09:06:50;;;;;;;16.17;11.48;;;;;;;7.63;50.45;102905.13;5029652;28;20050;-59
2022/01/12 09:09:17;;;;;;;16.90;11.57;;;;;;;7.80;50.21;102909.34;5028633;28;20057;-58
2022/01/12 09:11:44;;;;;;;24.85;11.82;;;;;;;8.13;49.54;102904.63;5028467;28;20513;-60
2022/01/12 09:14:11;;;;;;;48.85;27.95;;;;;;;8.19;49.31;102912.41;5028815;28;20073;-60
2022/01/12 09:16:38;;;;;;;255.60;113.80;;;;;;;8.29;48.93;102915.75;5028886;28;20107;-60
2022/01/12 09:19:05;;;;;;;91.30;42.92;;;;;;;8.37;48.48;102919.16;5029396;28;20096;-60
2022/01/12 09:21:33;;;;;;;178.68;95.88;;;;;;;8.52;48.17;102927.72;5020634;28;20403;-61
2022/01/12 09:23:59;;;;;;;115.57;59.88;;;;;;;8.71;47.58;102926.63;5010810;28;20086;-61
2022/01/12 09:26:26;;;;;;;170.02;78.78;;;;;;;8.90;47.22;102927.22;5016507;28;20057;-60
2022/01/12 09:28:52;;;;;;;58.83;32.45;;;;;;;8.97;47.04;102926.22;5015346;28;20260;-64
2022/01/12 09:31:19;;;;;;;92.43;45.85;;;;;;;9.17;46.68;102929.44;5019836;28;20084;-66
2022/01/12 09:33:49;;;;;;;47.03;25.95;;;;;;;9.27;46.38;102931.03;5024495;28;20128;-59
2022/01/12 09:36:16;;;;;;;36.47;19.58;;;;;;;9.46;45.93;102929.84;5015874;28;20049;-60
2022/01/12 09:38:43;;;;;;;38.38;18.85;;;;;;;9.64;45.43;102933.91;5015773;28;20486;-68
2022/01/12 09:41:09;;;;;;;84.47;46.45;;;;;;;9.71;45.18;102947.75;5014554;28;20081;-60
2022/01/12 09:43:38;;;;;;;69.90;42.20;;;;;;;9.72;44.99;102946.88;5026536;28;20047;-61
2022/01/12 09:46:04;;;;;;;24.85;16.27;;;;;;;9.93;44.57;102945.63;5022258;28;20042;-60
2022/01/12 09:48:34;;;;;;;54.28;28.75;;;;;;;10.09;44.07;102938.34;5026996;28;20405;-59
2022/01/12 09:51:04;;;;;;;74.40;37.00;;;;;;;10.25;43.93;102938.91;5024763;28;20410;-60
2022/01/12 09:53:32;;;;;;;73.22;34.63;;;;;;;10.37;43.52;102937.81;5020295;28;20041;-60
2022/01/12 09:56:00;;;;;;;72.05;34.47;;;;;;;10.40;43.50;102937.75;5014151;28;20054;-67
2022/01/12 09:58:33;;;;;;;44.97;19.92;;;;;;;10.56;43.32;102938.31;5016198;28;20048;-63
2022/01/12 10:01:02;;;;;;;48.45;23.38;;;;;;;10.74;43.15;102937.06;5010838;28;20049;-63
2022/01/12 10:03:31;;;;;;;45.03;21.75;;;;;;;10.91;42.79;102939.28;5021469;28;20042;-60
2022/01/12 10:05:58;;;;;;;66.70;32.10;;;;;;;10.98;42.95;102936.53;5019004;28;20070;-61
2022/01/12 10:08:24;;;;;;;56.05;28.67;;;;;;;11.14;42.79;102935.28;5021011;28;20045;-60
2022/01/12 10:11:05;;;;;;;65.22;30.88;;;;;;;11.13;42.62;102928.28;5027664;28;20057;-60
2022/01/12 10:13:33;;;;;;;162.05;96.18;;;;;;;11.26;42.50;102924.47;5028120;28;20045;-67
2022/01/12 10:16:16;;;;;;;56.90;32.28;;;;;;;11.30;42.66;102927.00;5028194;28;20095;-61
2022/01/12 10:18:54;;;;;;;55.20;34.90;;;;;;;11.36;42.23;102927.72;5028517;28;20045;-67
2022/01/12 10:21:31;;;;;;;47.33;29.63;;;;;;;11.49;42.07;102928.31;5028205;28;20090;-60
2022/01/12 10:24:04;;;;;;;57.25;30.60;;;;;;;11.49;42.09;102924.78;5015827;28;20448;-60
2022/01/12 10:26:42;;;;;;;38.88;21.45;;;;;;;11.66;41.79;102913.84;5011533;28;20422;-61
2022/01/12 10:29:12;;;;;;;47.95;26.83;;;;;;;11.74;41.73;102918.00;5018772;28;20046;-61
2022/01/12 10:31:50;;;;;;;40.33;21.27;;;;;;;11.89;41.57;102919.34;5019578;28;20042;-62
2022/01/12 10:34:21;;;;;;;35.17;22.13;;;;;;;11.91;41.36;102917.53;5018438;28;20053;-60
2022/01/12 10:36:48;;;;;;;22.38;12.23;;;;;;;12.05;40.96;102913.72;5023884;28;20045;-60
2022/01/12 10:39:16;;;;;;;21.35;11.20;;;;;;;12.02;41.20;102911.16;5027494;28;20053;-69
2022/01/12 10:42:07;;;;;;;23.30;12.48;;;;;;;12.04;40.71;102907.56;5028131;28;20042;-60
2022/01/12 10:44:40;;;;;;;22.73;12.63;;;;;;;12.03;40.92;102902.34;5020107;28;20046;-64
2022/01/12 10:47:07;;;;;;;19.15;11.27;;;;;;;11.98;40.46;102896.38;5027739;28;20050;-67
2022/01/12 10:49:37;;;;;;;20.27;11.70;;;;;;;12.14;40.32;102902.91;5027908;28;20056;-67
2022/01/12 10:52:10;;;;;;;17.58;11.93;;;;;;;12.15;40.17;102896.75;5017595;28;20071;-67
2022/01/12 10:54:47;;;;;;;22.67;13.20;;;;;;;12.26;40.07;102896.44;5027320;28;20107;-62
2022/01/12 10:57:16;;;;;;;23.10;12.57;;;;;;;12.34;39.71;102893.56;5030002;28;20045;-61
2022/01/12 10:59:47;;;;;;;23.60;12.02;;;;;;;12.33;39.72;102890.09;5031852;28;20179;-67
2022/01/12 11:02:19;;;;;;;;;;;;;;;12.22;39.52;102895.66;5031913;28;20084;-60
2022/01/12 11:04:47;;;;;;;21.02;11.05;;;;;;;12.17;39.80;102902.81;5025618;28;19925;-65
2022/01/12 11:07:14;;;;;;;24.55;11.75;;;;;;;12.20;39.87;102897.47;5018337;28;20078;-67
2022/01/12 11:09:41;;;;;;;25.67;16.58;;;;;;;12.17;39.55;102899.34;5025235;28;20054;-61
2022/01/12 11:12:09;;;;;;;47.22;30.58;;;;;;;11.92;39.81;102892.09;5012018;28;20536;-60
2022/01/12 11:14:36;;;;;;;34.65;22.73;;;;;;;11.96;40.05;102899.03;5014953;28;20053;-67
2022/01/12 11:17:03;;;;;;;52.70;30.48;;;;;;;11.71;40.44;102899.66;5031005;28;20041;-59
2022/01/12 11:19:32;;;;;;;65.35;36.83;;;;;;;11.60;40.42;102886.81;5021120;28;20045;-61
2022/01/12 11:22:12;;;;;;;67.75;38.83;;;;;;;11.47;40.89;102890.66;5030487;28;20099;-58
2022/01/12 11:24:44;;;;;;;65.95;34.95;;;;;;;11.25;41.18;102890.34;5026758;28;20060;-68
2022/01/12 11:27:20;;;;;;;40.00;18.42;;;;;;;10.98;41.32;102897.97;5014021;28;20045;-68
2022/01/12 11:29:47;;;;;;;31.83;15.15;;;;;;;10.82;41.43;102901.84;5024336;28;20425;-60
2022/01/12 11:32:21;;;;;;;49.30;20.38;;;;;;;10.72;41.54;102901.22;5031385;28;20049;-66
2022/01/12 11:35:03;;;;;;;59.85;27.45;;;;;;;10.69;41.61;102893.41;5031130;28;20489;-63
2022/01/12 11:37:46;;;;;;;49.13;20.92;;;;;;;10.66;41.81;102896.09;5018013;28;20046;-60
2022/01/12 11:40:13;;;;;;;43.30;16.90;;;;;;;10.66;42.06;102894.34;5025906;28;20092;-59
2022/01/12 11:42:40;;;;;;;38.28;16.58;;;;;;;10.66;42.09;102890.84;5028312;28;20091;-62
2022/01/12 11:45:19;;;;;;;20.95;11.00;;;;;;;10.64;42.24;102893.53;5028831;28;20079;-61
2022/01/12 11:47:46;;;;;;;38.00;15.00;;;;;;;10.44;42.39;102886.06;5028114;28;20052;-66
2022/01/12 11:50:12;;;;;;;38.10;14.27;;;;;;;10.56;42.04;102875.31;5030832;28;20132;-60
2022/01/12 11:52:39;;;;;;;44.95;19.40;;;;;;;10.57;42.04;102873.53;5030315;28;20107;-59
2022/01/12 11:55:17;;;;;;;88.05;41.17;;;;;;;10.66;41.87;102877.72;5029567;28;20061;-67
2022/01/12 11:57:52;;;;;;;96.75;49.30;;;;;;;10.58;41.90;102878.75;5029103;28;20166;-64
2022/01/12 12:00:27;;;;;;;74.95;33.85;;;;;;;10.54;41.88;102868.34;5030562;28;20058;-67
2022/01/12 12:02:53;;;;;;;25.42;18.17;;;;;;;10.60;41.46;102874.34;5030706;28;20046;-60
2022/01/12 12:05:31;;;;;;;34.33;17.80;;;;;;;10.65;41.32;102871.59;5029695;28;20887;-60
2022/01/12 12:08:03;;;;;;;56.30;26.83;;;;;;;10.66;41.45;102873.31;5028797;28;20049;-61
2022/01/12 12:10:36;;;;;;;118.25;55.83;;;;;;;10.83;41.30;102861.56;5029792;28;21344;-62
2022/01/12 12:13:05;;;;;;;300.33;149.63;;;;;;;10.73;41.25;102861.78;5030564;28;20053;-61
2022/01/12 12:15:33;;;;;;;236.35;129.02;;;;;;;10.75;41.03;102865.25;5025784;28;20053;-59
2022/01/12 12:18:03;;;;;;;132.10;73.22;;;;;;;10.78;40.63;102867.78;5030318;28;20037;-62
2022/01/12 12:20:32;;;;;;;61.03;34.72;;;;;;;10.77;40.57;102867.84;5023221;28;20045;-66
2022/01/12 12:22:59;;;;;;;105.70;55.97;;;;;;;10.81;40.20;102868.63;5029113;28;20099;-61
2022/01/12 12:25:28;;;;;;;109.32;59.78;;;;;;;10.84;40.19;102864.16;5028556;28;20053;-67
2022/01/12 12:28:04;;;;;;;52.72;28.42;;;;;;;10.81;40.15;102860.75;5027128;28;20049;-60
2022/01/12 12:30:32;;;;;;;;;;;;;;;10.74;40.12;102862.63;5029032;28;20517;-61
2022/01/12 12:33:06;;;;;;;53.40;30.13;;;;;;;10.77;39.96;102860.81;5029745;28;19971;-64
2022/01/12 12:35:35;;;;;;;55.00;31.08;;;;;;;10.88;39.82;102862.31;5024895;28;20463;-60
2022/01/12 12:38:07;;;;;;;112.55;51.30;;;;;;;10.89;39.53;102856.16;5029917;28;20046;-68
2022/01/12 12:40:42;;;;;;;93.10;42.05;;;;;;;10.90;39.27;102860.53;5029292;28;20045;-60